sensor_id;sensor_type;location;lat;lon;timestamp;P1;durP1;ratioP1;P2;durP2;ratioP2
20445;SDS011;10382;49.140;9.234;2022-09-02T00:02:10;7.10;;;4.50;;
20445;SDS011;10382;49.140;9.234;2022-09-02T00:04:38;8.33;;;4.63;;
20445;SDS011;10382;49.140;9.234;2022-09-02T00:07:06;7.43;;;6.00;;
20445;SDS011;10382;49.140;9.234;2022-09-02T00:09:34;7.40;;;4.80;;
20445;SDS011;10382;49.140;9.234;2022-09-02T00:12:01;8.43;;;4.80;;
20445;SDS011;10382;49.140;9.234;2022-09-02T00:14:30;5.90;;;4.37;;
20445;SDS011;10382;49.140;9.234;2022-09-02T00:16:59;4.83;;;4.40;;
20445;SDS011;10382;49.140;9.234;2022-09-02T00:19:26;5.10;;;4.57;;
20445;SDS011;10382;49.140;9.234;2022-09-02T00:21:56;4.53;;;4.17;;
20445;SDS011;10382;49.140;9.234;2022-09-02T00:24:24;5.47;;;4.90;;
20445;SDS011;10382;49.140;9.234;2022-09-02T00:26:51;5.63;;;4.50;;
20445;SDS011;10382;49.140;9.234;2022-09-02T00:29:18;4.90;;;4.40;;
20445;SDS011;10382;49.140;9.234;2022-09-02T00:31:45;4.43;;;4.03;;
20445;SDS011;10382;49.140;9.234;2022-09-02T00:34:12;5.50;;;4.60;;
20445;SDS011;10382;49.140;9.234;2022-09-02T00:36:39;5.27;;;4.77;;
20445;SDS011;10382;49.140;9.234;2022-09-02T00:39:08;5.70;;;5.17;;
20445;SDS011;10382;49.140;9.234;2022-09-02T00:41:37;6.47;;;5.10;;
20445;SDS011;10382;49.140;9.234;2022-09-02T00:44:06;5.27;;;4.50;;
20445;SDS011;10382;49.140;9.234;2022-09-02T00:46:34;5.20;;;4.30;;
20445;SDS011;10382;49.140;9.234;2022-09-02T00:49:03;6.40;;;4.73;;
20445;SDS011;10382;49.140;9.234;2022-09-02T00:51:36;4.20;;;3.80;;
20445;SDS011;10382;49.140;9.234;2022-09-02T00:54:07;14.50;;;4.50;;
20445;SDS011;10382;49.140;9.234;2022-09-02T00:56:37;4.43;;;4.03;;
20445;SDS011;10382;49.140;9.234;2022-09-02T00:59:07;5.07;;;4.57;;
20445;SDS011;10382;49.140;9.234;2022-09-02T01:01:35;5.67;;;5.03;;
20445;SDS011;10382;49.140;9.234;2022-09-02T01:04:02;6.17;;;5.10;;
20445;SDS011;10382;49.140;9.234;2022-09-02T01:06:29;6.80;;;4.20;;
20445;SDS011;10382;49.140;9.234;2022-09-02T01:08:57;5.37;;;4.53;;
20445;SDS011;10382;49.140;9.234;2022-09-02T01:11:34;5.93;;;5.03;;
20445;SDS011;10382;49.140;9.234;2022-09-02T01:14:03;7.07;;;4.93;;
20445;SDS011;10382;49.140;9.234;2022-09-02T01:16:32;5.63;;;4.40;;
20445;SDS011;10382;49.140;9.234;2022-09-02T01:19:06;5.37;;;4.10;;
20445;SDS011;10382;49.140;9.234;2022-09-02T01:21:37;3.80;;;3.50;;
20445;SDS011;10382;49.140;9.234;2022-09-02T01:24:06;8.00;;;4.60;;
20445;SDS011;10382;49.140;9.234;2022-09-02T01:26:33;7.90;;;5.43;;
20445;SDS011;10382;49.140;9.234;2022-09-02T01:29:00;13.77;;;5.30;;
20445;SDS011;10382;49.140;9.234;2022-09-02T01:31:27;4.60;;;4.00;;
20445;SDS011;10382;49.140;9.234;2022-09-02T01:33:54;6.73;;;5.20;;
20445;SDS011;10382;49.140;9.234;2022-09-02T01:36:22;4.83;;;3.90;;
20445;SDS011;10382;49.140;9.234;2022-09-02T01:38:49;8.53;;;4.43;;
20445;SDS011;10382;49.140;9.234;2022-09-02T01:41:17;5.33;;;4.57;;
20445;SDS011;10382;49.140;9.234;2022-09-02T01:43:44;5.80;;;5.10;;
20445;SDS011;10382;49.140;9.234;2022-09-02T01:46:11;4.47;;;3.70;;
20445;SDS011;10382;49.140;9.234;2022-09-02T01:48:38;4.87;;;4.47;;
20445;SDS011;10382;49.140;9.234;2022-09-02T01:51:05;4.93;;;4.47;;
20445;SDS011;10382;49.140;9.234;2022-09-02T01:53:32;5.50;;;4.50;;
20445;SDS011;10382;49.140;9.234;2022-09-02T01:55:59;7.07;;;4.97;;
20445;SDS011;10382;49.140;9.234;2022-09-02T01:58:27;5.40;;;4.57;;
20445;SDS011;10382;49.140;9.234;2022-09-02T02:00:54;4.77;;;4.37;;
20445;SDS011;10382;49.140;9.234;2022-09-02T02:03:21;8.43;;;4.17;;
20445;SDS011;10382;49.140;9.234;2022-09-02T02:05:49;3.77;;;3.47;;
20445;SDS011;10382;49.140;9.234;2022-09-02T02:08:16;5.23;;;4.70;;
20445;SDS011;10382;49.140;9.234;2022-09-02T02:10:43;4.70;;;4.23;;
20445;SDS011;10382;49.140;9.234;2022-09-02T02:13:11;4.77;;;4.17;;
20445;SDS011;10382;49.140;9.234;2022-09-02T02:15:40;4.53;;;4.13;;
20445;SDS011;10382;49.140;9.234;2022-09-02T02:18:08;7.53;;;4.60;;
20445;SDS011;10382;49.140;9.234;2022-09-02T02:20:36;4.43;;;3.60;;
20445;SDS011;10382;49.140;9.234;2022-09-02T02:23:03;6.93;;;5.10;;
20445;SDS011;10382;49.140;9.234;2022-09-02T02:25:32;7.80;;;5.60;;
20445;SDS011;10382;49.140;9.234;2022-09-02T02:27:59;6.53;;;5.60;;
20445;SDS011;10382;49.140;9.234;2022-09-02T02:30:26;7.10;;;4.60;;
20445;SDS011;10382;49.140;9.234;2022-09-02T02:32:54;5.77;;;4.83;;
20445;SDS011;10382;49.140;9.234;2022-09-02T02:35:21;8.00;;;5.07;;
20445;SDS011;10382;49.140;9.234;2022-09-02T02:37:48;5.40;;;4.90;;
20445;SDS011;10382;49.140;9.234;2022-09-02T02:40:16;5.30;;;4.80;;
20445;SDS011;10382;49.140;9.234;2022-09-02T02:42:44;5.20;;;4.70;;
20445;SDS011;10382;49.140;9.234;2022-09-02T02:45:11;7.73;;;5.23;;
20445;SDS011;10382;49.140;9.234;2022-09-02T02:47:38;9.67;;;5.50;;
20445;SDS011;10382;49.140;9.234;2022-09-02T02:50:09;5.60;;;5.10;;
20445;SDS011;10382;49.140;9.234;2022-09-02T02:52:37;10.10;;;5.47;;
20445;SDS011;10382;49.140;9.234;2022-09-02T02:55:05;6.43;;;5.73;;
20445;SDS011;10382;49.140;9.234;2022-09-02T02:57:33;6.27;;;5.57;;
20445;SDS011;10382;49.140;9.234;2022-09-02T03:00:04;5.37;;;4.20;;
20445;SDS011;10382;49.140;9.234;2022-09-02T03:02:31;5.07;;;4.57;;
20445;SDS011;10382;49.140;9.234;2022-09-02T03:04:59;6.67;;;5.07;;
20445;SDS011;10382;49.140;9.234;2022-09-02T03:07:27;6.30;;;5.20;;
20445;SDS011;10382;49.140;9.234;2022-09-02T03:09:54;5.40;;;4.40;;
20445;SDS011;10382;49.140;9.234;2022-09-02T03:12:21;5.20;;;4.70;;
20445;SDS011;10382;49.140;9.234;2022-09-02T03:14:49;4.90;;;4.50;;
20445;SDS011;10382;49.140;9.234;2022-09-02T03:17:17;4.90;;;4.40;;
20445;SDS011;10382;49.140;9.234;2022-09-02T03:19:44;4.90;;;4.37;;
20445;SDS011;10382;49.140;9.234;2022-09-02T03:22:11;9.43;;;5.00;;
20445;SDS011;10382;49.140;9.234;2022-09-02T03:24:39;9.20;;;5.63;;
20445;SDS011;10382;49.140;9.234;2022-09-02T03:27:06;8.67;;;4.43;;
20445;SDS011;10382;49.140;9.234;2022-09-02T03:29:33;12.27;;;5.43;;
20445;SDS011;10382;49.140;9.234;2022-09-02T03:32:00;5.73;;;5.13;;
20445;SDS011;10382;49.140;9.234;2022-09-02T03:34:27;4.90;;;4.43;;
20445;SDS011;10382;49.140;9.234;2022-09-02T03:36:55;5.20;;;4.77;;
20445;SDS011;10382;49.140;9.234;2022-09-02T03:39:22;5.27;;;4.77;;
20445;SDS011;10382;49.140;9.234;2022-09-02T03:41:50;7.73;;;5.83;;
20445;SDS011;10382;49.140;9.234;2022-09-02T03:44:17;5.20;;;4.70;;
20445;SDS011;10382;49.140;9.234;2022-09-02T03:46:44;19.70;;;5.50;;
20445;SDS011;10382;49.140;9.234;2022-09-02T03:49:11;7.60;;;4.63;;
20445;SDS011;10382;49.140;9.234;2022-09-02T03:51:39;9.07;;;5.80;;
20445;SDS011;10382;49.140;9.234;2022-09-02T03:54:07;6.23;;;4.73;;
20445;SDS011;10382;49.140;9.234;2022-09-02T03:56:34;7.90;;;5.83;;
20445;SDS011;10382;49.140;9.234;2022-09-02T03:59:03;5.67;;;4.83;;
20445;SDS011;10382;49.140;9.234;2022-09-02T04:01:30;6.30;;;5.20;;
20445;SDS011;10382;49.140;9.234;2022-09-02T04:03:58;9.07;;;5.13;;
20445;SDS011;10382;49.140;9.234;2022-09-02T04:06:25;5.43;;;4.70;;
20445;SDS011;10382;49.140;9.234;2022-09-02T04:08:52;5.90;;;5.30;;
20445;SDS011;10382;49.140;9.234;2022-09-02T04:11:20;10.60;;;5.20;;
20445;SDS011;10382;49.140;9.234;2022-09-02T04:13:48;7.77;;;6.17;;
20445;SDS011;10382;49.140;9.234;2022-09-02T04:16:19;5.33;;;4.87;;
20445;SDS011;10382;49.140;9.234;2022-09-02T04:18:52;6.30;;;5.70;;
20445;SDS011;10382;49.140;9.234;2022-09-02T04:21:20;6.23;;;5.63;;
20445;SDS011;10382;49.140;9.234;2022-09-02T04:23:47;5.97;;;5.27;;
20445;SDS011;10382;49.140;9.234;2022-09-02T04:26:16;7.07;;;4.53;;
20445;SDS011;10382;49.140;9.234;2022-09-02T04:28:44;5.87;;;5.20;;
20445;SDS011;10382;49.140;9.234;2022-09-02T04:31:13;6.20;;;5.57;;
20445;SDS011;10382;49.140;9.234;2022-09-02T04:33:43;9.73;;;5.30;;
20445;SDS011;10382;49.140;9.234;2022-09-02T04:36:11;8.70;;;6.17;;
20445;SDS011;10382;49.140;9.234;2022-09-02T04:38:39;7.60;;;5.03;;
20445;SDS011;10382;49.140;9.234;2022-09-02T04:41:06;5.23;;;4.73;;
20445;SDS011;10382;49.140;9.234;2022-09-02T04:43:34;6.00;;;5.10;;
20445;SDS011;10382;49.140;9.234;2022-09-02T04:46:02;8.43;;;4.60;;
20445;SDS011;10382;49.140;9.234;2022-09-02T04:48:30;6.70;;;5.50;;
20445;SDS011;10382;49.140;9.234;2022-09-02T04:51:03;6.63;;;5.57;;
20445;SDS011;10382;49.140;9.234;2022-09-02T04:53:31;5.33;;;4.83;;
20445;SDS011;10382;49.140;9.234;2022-09-02T04:55:58;7.43;;;5.40;;
20445;SDS011;10382;49.140;9.234;2022-09-02T04:58:25;11.13;;;6.10;;
20445;SDS011;10382;49.140;9.234;2022-09-02T05:00:53;7.97;;;5.20;;
20445;SDS011;10382;49.140;9.234;2022-09-02T05:03:20;6.60;;;4.80;;
20445;SDS011;10382;49.140;9.234;2022-09-02T05:05:56;8.73;;;6.07;;
20445;SDS011;10382;49.140;9.234;2022-09-02T05:08:25;21.00;;;9.03;;
20445;SDS011;10382;49.140;9.234;2022-09-02T05:10:53;18.20;;;8.03;;
20445;SDS011;10382;49.140;9.234;2022-09-02T05:13:20;17.20;;;8.60;;
20445;SDS011;10382;49.140;9.234;2022-09-02T05:15:48;18.90;;;9.93;;
20445;SDS011;10382;49.140;9.234;2022-09-02T05:18:15;29.07;;;11.60;;
20445;SDS011;10382;49.140;9.234;2022-09-02T05:20:42;19.40;;;9.27;;
20445;SDS011;10382;49.140;9.234;2022-09-02T05:23:09;10.40;;;6.40;;
20445;SDS011;10382;49.140;9.234;2022-09-02T05:25:39;12.83;;;7.07;;
20445;SDS011;10382;49.140;9.234;2022-09-02T05:28:06;14.30;;;6.27;;
20445;SDS011;10382;49.140;9.234;2022-09-02T05:30:33;10.30;;;6.23;;
20445;SDS011;10382;49.140;9.234;2022-09-02T05:33:00;15.90;;;6.37;;
20445;SDS011;10382;49.140;9.234;2022-09-02T05:35:27;10.90;;;6.27;;
20445;SDS011;10382;49.140;9.234;2022-09-02T05:37:54;13.67;;;6.63;;
20445;SDS011;10382;49.140;9.234;2022-09-02T05:40:21;5.80;;;5.20;;
20445;SDS011;10382;49.140;9.234;2022-09-02T05:42:50;15.17;;;5.40;;
20445;SDS011;10382;49.140;9.234;2022-09-02T05:45:17;7.00;;;5.13;;
20445;SDS011;10382;49.140;9.234;2022-09-02T05:47:44;14.50;;;5.70;;
20445;SDS011;10382;49.140;9.234;2022-09-02T05:50:11;8.90;;;4.97;;
20445;SDS011;10382;49.140;9.234;2022-09-02T05:52:39;10.60;;;5.70;;
20445;SDS011;10382;49.140;9.234;2022-09-02T05:55:06;9.50;;;4.73;;
20445;SDS011;10382;49.140;9.234;2022-09-02T05:57:33;12.87;;;5.53;;
20445;SDS011;10382;49.140;9.234;2022-09-02T06:00:02;8.57;;;4.60;;
20445;SDS011;10382;49.140;9.234;2022-09-02T06:02:29;6.90;;;3.90;;
20445;SDS011;10382;49.140;9.234;2022-09-02T06:04:56;8.40;;;4.83;;
20445;SDS011;10382;49.140;9.234;2022-09-02T06:07:23;10.50;;;3.97;;
20445;SDS011;10382;49.140;9.234;2022-09-02T06:09:51;16.27;;;4.60;;
20445;SDS011;10382;49.140;9.234;2022-09-02T06:12:18;19.10;;;4.03;;
20445;SDS011;10382;49.140;9.234;2022-09-02T06:14:45;5.87;;;3.83;;
20445;SDS011;10382;49.140;9.234;2022-09-02T06:17:13;6.00;;;3.90;;
20445;SDS011;10382;49.140;9.234;2022-09-02T06:19:40;8.57;;;4.10;;
20445;SDS011;10382;49.140;9.234;2022-09-02T06:22:07;10.33;;;3.50;;
20445;SDS011;10382;49.140;9.234;2022-09-02T06:24:34;21.20;;;4.03;;
20445;SDS011;10382;49.140;9.234;2022-09-02T06:27:01;7.20;;;4.17;;
20445;SDS011;10382;49.140;9.234;2022-09-02T06:29:28;4.70;;;3.50;;
20445;SDS011;10382;49.140;9.234;2022-09-02T06:31:55;9.73;;;3.77;;
20445;SDS011;10382;49.140;9.234;2022-09-02T06:34:24;3.57;;;3.33;;
20445;SDS011;10382;49.140;9.234;2022-09-02T06:36:52;4.83;;;3.80;;
20445;SDS011;10382;49.140;9.234;2022-09-02T06:39:20;8.70;;;3.20;;
20445;SDS011;10382;49.140;9.234;2022-09-02T06:41:47;3.40;;;3.10;;
20445;SDS011;10382;49.140;9.234;2022-09-02T06:44:15;23.17;;;3.70;;
20445;SDS011;10382;49.140;9.234;2022-09-02T06:46:46;13.53;;;4.20;;
20445;SDS011;10382;49.140;9.234;2022-09-02T06:49:17;6.10;;;3.10;;
20445;SDS011;10382;49.140;9.234;2022-09-02T06:51:46;8.97;;;4.23;;
20445;SDS011;10382;49.140;9.234;2022-09-02T06:54:15;4.40;;;3.90;;
20445;SDS011;10382;49.140;9.234;2022-09-02T06:56:43;7.97;;;3.97;;
20445;SDS011;10382;49.140;9.234;2022-09-02T06:59:10;4.37;;;3.30;;
20445;SDS011;10382;49.140;9.234;2022-09-02T07:01:37;3.53;;;3.23;;
20445;SDS011;10382;49.140;9.234;2022-09-02T07:04:04;15.53;;;3.40;;
20445;SDS011;10382;49.140;9.234;2022-09-02T07:06:50;8.40;;;3.00;;
20445;SDS011;10382;49.140;9.234;2022-09-02T07:09:19;4.97;;;3.83;;
20445;SDS011;10382;49.140;9.234;2022-09-02T07:11:48;7.50;;;3.80;;
20445;SDS011;10382;49.140;9.234;2022-09-02T07:14:16;5.17;;;3.30;;
20445;SDS011;10382;49.140;9.234;2022-09-02T07:16:46;4.00;;;3.60;;
20445;SDS011;10382;49.140;9.234;2022-09-02T07:19:15;5.40;;;3.10;;
20445;SDS011;10382;49.140;9.234;2022-09-02T07:21:43;10.60;;;3.03;;
20445;SDS011;10382;49.140;9.234;2022-09-02T07:24:11;6.97;;;4.70;;
20445;SDS011;10382;49.140;9.234;2022-09-02T07:26:40;7.07;;;3.40;;
20445;SDS011;10382;49.140;9.234;2022-09-02T07:29:07;6.07;;;3.30;;
20445;SDS011;10382;49.140;9.234;2022-09-02T07:31:34;5.43;;;3.10;;
20445;SDS011;10382;49.140;9.234;2022-09-02T07:34:02;2.93;;;2.70;;
20445;SDS011;10382;49.140;9.234;2022-09-02T07:36:30;8.87;;;3.37;;
20445;SDS011;10382;49.140;9.234;2022-09-02T07:38:59;6.23;;;3.00;;
20445;SDS011;10382;49.140;9.234;2022-09-02T07:41:27;5.03;;;3.07;;
20445;SDS011;10382;49.140;9.234;2022-09-02T07:43:54;8.73;;;4.10;;
20445;SDS011;10382;49.140;9.234;2022-09-02T07:46:21;3.07;;;2.70;;
20445;SDS011;10382;49.140;9.234;2022-09-02T07:48:48;4.07;;;3.27;;
20445;SDS011;10382;49.140;9.234;2022-09-02T07:51:16;5.70;;;3.50;;
20445;SDS011;10382;49.140;9.234;2022-09-02T07:53:44;5.57;;;3.30;;
20445;SDS011;10382;49.140;9.234;2022-09-02T07:56:12;4.90;;;2.53;;
20445;SDS011;10382;49.140;9.234;2022-09-02T07:58:41;6.13;;;2.83;;
20445;SDS011;10382;49.140;9.234;2022-09-02T08:01:09;5.40;;;3.20;;
20445;SDS011;10382;49.140;9.234;2022-09-02T08:03:38;4.93;;;3.80;;
20445;SDS011;10382;49.140;9.234;2022-09-02T08:06:06;5.33;;;3.17;;
20445;SDS011;10382;49.140;9.234;2022-09-02T08:08:33;12.33;;;3.00;;
20445;SDS011;10382;49.140;9.234;2022-09-02T08:11:00;9.47;;;4.13;;
20445;SDS011;10382;49.140;9.234;2022-09-02T08:13:27;4.77;;;3.10;;
20445;SDS011;10382;49.140;9.234;2022-09-02T08:15:55;2.80;;;2.53;;
20445;SDS011;10382;49.140;9.234;2022-09-02T08:18:22;3.53;;;3.07;;
20445;SDS011;10382;49.140;9.234;2022-09-02T08:20:50;2.60;;;2.40;;
20445;SDS011;10382;49.140;9.234;2022-09-02T08:23:16;13.73;;;3.10;;
20445;SDS011;10382;49.140;9.234;2022-09-02T08:25:43;4.50;;;3.33;;
20445;SDS011;10382;49.140;9.234;2022-09-02T08:28:10;4.43;;;2.73;;
20445;SDS011;10382;49.140;9.234;2022-09-02T08:30:37;10.30;;;2.63;;
20445;SDS011;10382;49.140;9.234;2022-09-02T08:33:06;3.70;;;2.67;;
20445;SDS011;10382;49.140;9.234;2022-09-02T08:35:32;4.10;;;2.83;;
20445;SDS011;10382;49.140;9.234;2022-09-02T08:38:00;3.43;;;2.90;;
20445;SDS011;10382;49.140;9.234;2022-09-02T08:40:28;3.10;;;2.77;;
20445;SDS011;10382;49.140;9.234;2022-09-02T08:43:00;4.73;;;2.80;;
20445;SDS011;10382;49.140;9.234;2022-09-02T08:45:31;5.30;;;3.43;;
20445;SDS011;10382;49.140;9.234;2022-09-02T08:48:03;3.83;;;3.23;;
20445;SDS011;10382;49.140;9.234;2022-09-02T08:50:37;4.00;;;2.83;;
20445;SDS011;10382;49.140;9.234;2022-09-02T08:53:06;10.60;;;2.37;;
20445;SDS011;10382;49.140;9.234;2022-09-02T08:55:42;8.03;;;3.10;;
20445;SDS011;10382;49.140;9.234;2022-09-02T08:58:13;4.87;;;2.93;;
20445;SDS011;10382;49.140;9.234;2022-09-02T09:00:44;3.07;;;2.40;;
20445;SDS011;10382;49.140;9.234;2022-09-02T09:03:21;3.83;;;2.77;;
20445;SDS011;10382;49.140;9.234;2022-09-02T09:05:56;3.07;;;2.50;;
20445;SDS011;10382;49.140;9.234;2022-09-02T09:08:31;4.50;;;3.23;;
20445;SDS011;10382;49.140;9.234;2022-09-02T09:11:04;3.93;;;2.70;;
20445;SDS011;10382;49.140;9.234;2022-09-02T09:13:46;3.17;;;2.60;;
20445;SDS011;10382;49.140;9.234;2022-09-02T09:16:30;16.23;;;2.70;;
20445;SDS011;10382;49.140;9.234;2022-09-02T09:19:08;6.07;;;2.83;;
20445;SDS011;10382;49.140;9.234;2022-09-02T09:21:38;3.93;;;2.47;;
20445;SDS011;10382;49.140;9.234;2022-09-02T09:24:08;4.30;;;3.00;;
20445;SDS011;10382;49.140;9.234;2022-09-02T09:26:43;3.33;;;2.60;;
20445;SDS011;10382;49.140;9.234;2022-09-02T09:29:12;4.20;;;3.00;;
20445;SDS011;10382;49.140;9.234;2022-09-02T09:31:39;6.07;;;3.17;;
20445;SDS011;10382;49.140;9.234;2022-09-02T09:34:08;5.13;;;2.43;;
20445;SDS011;10382;49.140;9.234;2022-09-02T09:36:42;9.73;;;2.67;;
20445;SDS011;10382;49.140;9.234;2022-09-02T09:39:25;6.03;;;2.57;;
20445;SDS011;10382;49.140;9.234;2022-09-02T09:41:54;9.33;;;3.77;;
20445;SDS011;10382;49.140;9.234;2022-09-02T09:44:36;7.10;;;2.57;;
20445;SDS011;10382;49.140;9.234;2022-09-02T09:47:09;7.43;;;2.80;;
20445;SDS011;10382;49.140;9.234;2022-09-02T09:49:43;7.27;;;3.50;;
20445;SDS011;10382;49.140;9.234;2022-09-02T09:52:10;3.00;;;2.07;;
20445;SDS011;10382;49.140;9.234;2022-09-02T09:54:48;4.13;;;2.80;;
20445;SDS011;10382;49.140;9.234;2022-09-02T09:57:33;4.23;;;2.40;;
20445;SDS011;10382;49.140;9.234;2022-09-02T10:00:00;6.00;;;3.97;;
20445;SDS011;10382;49.140;9.234;2022-09-02T10:02:27;2.10;;;1.90;;
20445;SDS011;10382;49.140;9.234;2022-09-02T10:05:08;7.07;;;2.10;;
20445;SDS011;10382;49.140;9.234;2022-09-02T10:07:37;4.50;;;2.70;;
20445;SDS011;10382;49.140;9.234;2022-09-02T10:10:11;2.27;;;1.83;;
20445;SDS011;10382;49.140;9.234;2022-09-02T10:12:42;4.27;;;2.83;;
20445;SDS011;10382;49.140;9.234;2022-09-02T10:15:10;4.70;;;2.87;;
20445;SDS011;10382;49.140;9.234;2022-09-02T10:17:39;3.83;;;2.50;;
20445;SDS011;10382;49.140;9.234;2022-09-02T10:20:15;6.67;;;3.23;;
20445;SDS011;10382;49.140;9.234;2022-09-02T10:22:54;6.90;;;3.03;;
20445;SDS011;10382;49.140;9.234;2022-09-02T10:25:33;7.30;;;2.60;;
20445;SDS011;10382;49.140;9.234;2022-09-02T10:28:14;2.37;;;1.97;;
20445;SDS011;10382;49.140;9.234;2022-09-02T10:30:50;7.60;;;2.67;;
20445;SDS011;10382;49.140;9.234;2022-09-02T10:33:27;4.47;;;2.77;;
20445;SDS011;10382;49.140;9.234;2022-09-02T10:36:04;6.27;;;2.70;;
20445;SDS011;10382;49.140;9.234;2022-09-02T10:38:37;2.57;;;2.00;;
20445;SDS011;10382;49.140;9.234;2022-09-02T10:41:17;3.30;;;2.60;;
20445;SDS011;10382;49.140;9.234;2022-09-02T10:44:00;4.57;;;2.40;;
20445;SDS011;10382;49.140;9.234;2022-09-02T10:46:43;4.07;;;2.50;;
20445;SDS011;10382;49.140;9.234;2022-09-02T10:49:20;6.70;;;3.27;;
20445;SDS011;10382;49.140;9.234;2022-09-02T10:51:58;2.80;;;2.00;;
20445;SDS011;10382;49.140;9.234;2022-09-02T10:54:36;11.00;;;3.20;;
20445;SDS011;10382;49.140;9.234;2022-09-02T10:57:09;7.13;;;2.87;;
20445;SDS011;10382;49.140;9.234;2022-09-02T10:59:42;3.37;;;2.43;;
20445;SDS011;10382;49.140;9.234;2022-09-02T11:02:15;9.60;;;3.27;;
20445;SDS011;10382;49.140;9.234;2022-09-02T11:04:47;7.00;;;4.03;;
20445;SDS011;10382;49.140;9.234;2022-09-02T11:07:20;4.43;;;2.50;;
20445;SDS011;10382;49.140;9.234;2022-09-02T11:09:53;3.63;;;2.60;;
20445;SDS011;10382;49.140;9.234;2022-09-02T11:12:25;2.60;;;2.00;;
20445;SDS011;10382;49.140;9.234;2022-09-02T11:14:58;4.43;;;2.90;;
20445;SDS011;10382;49.140;9.234;2022-09-02T11:17:34;5.23;;;2.80;;
20445;SDS011;10382;49.140;9.234;2022-09-02T11:20:04;6.00;;;3.10;;
20445;SDS011;10382;49.140;9.234;2022-09-02T11:22:41;6.77;;;3.07;;
20445;SDS011;10382;49.140;9.234;2022-09-02T11:25:20;8.77;;;2.43;;
20445;SDS011;10382;49.140;9.234;2022-09-02T11:27:51;2.60;;;2.23;;
20445;SDS011;10382;49.140;9.234;2022-09-02T11:30:26;4.67;;;2.10;;
20445;SDS011;10382;49.140;9.234;2022-09-02T11:33:05;4.40;;;3.00;;
20445;SDS011;10382;49.140;9.234;2022-09-02T11:35:39;3.10;;;2.70;;
20445;SDS011;10382;49.140;9.234;2022-09-02T11:38:14;3.80;;;2.83;;
20445;SDS011;10382;49.140;9.234;2022-09-02T11:40:57;5.30;;;2.43;;
20445;SDS011;10382;49.140;9.234;2022-09-02T11:43:39;5.63;;;3.60;;
20445;SDS011;10382;49.140;9.234;2022-09-02T11:52:17;6.20;;;1.63;;
20445;SDS011;10382;49.140;9.234;2022-09-02T11:54:57;3.10;;;2.20;;
20445;SDS011;10382;49.140;9.234;2022-09-02T11:57:31;1.47;;;1.37;;
20445;SDS011;10382;49.140;9.234;2022-09-02T12:00:13;4.07;;;2.23;;
20445;SDS011;10382;49.140;9.234;2022-09-02T12:02:55;6.33;;;2.43;;
20445;SDS011;10382;49.140;9.234;2022-09-02T12:05:43;19.87;;;2.47;;
20445;SDS011;10382;49.140;9.234;2022-09-02T12:08:12;6.40;;;3.20;;
20445;SDS011;10382;49.140;9.234;2022-09-02T12:11:00;3.73;;;2.50;;
20445;SDS011;10382;49.140;9.234;2022-09-02T12:13:31;5.43;;;2.43;;
20445;SDS011;10382;49.140;9.234;2022-09-02T12:19:16;5.93;;;3.63;;
20445;SDS011;10382;49.140;9.234;2022-09-02T12:24:51;8.73;;;3.40;;
20445;SDS011;10382;49.140;9.234;2022-09-02T12:27:30;9.20;;;3.40;;
20445;SDS011;10382;49.140;9.234;2022-09-02T12:30:01;9.07;;;3.20;;
20445;SDS011;10382;49.140;9.234;2022-09-02T12:33:00;16.40;;;2.90;;
20445;SDS011;10382;49.140;9.234;2022-09-02T12:35:52;11.60;;;3.00;;
20445;SDS011;10382;49.140;9.234;2022-09-02T12:38:23;8.80;;;2.90;;
20445;SDS011;10382;49.140;9.234;2022-09-02T12:41:06;12.70;;;3.97;;
20445;SDS011;10382;49.140;9.234;2022-09-02T12:46:50;8.90;;;2.83;;
20445;SDS011;10382;49.140;9.234;2022-09-02T12:52:11;15.73;;;4.47;;
20445;SDS011;10382;49.140;9.234;2022-09-02T12:55:07;11.70;;;4.00;;
20445;SDS011;10382;49.140;9.234;2022-09-02T12:57:38;11.83;;;3.30;;
20445;SDS011;10382;49.140;9.234;2022-09-02T13:00:07;15.90;;;4.37;;
20445;SDS011;10382;49.140;9.234;2022-09-02T13:02:43;14.37;;;3.53;;
20445;SDS011;10382;49.140;9.234;2022-09-02T13:05:20;17.90;;;4.50;;
20445;SDS011;10382;49.140;9.234;2022-09-02T13:08:05;17.83;;;4.27;;
20445;SDS011;10382;49.140;9.234;2022-09-02T13:14:26;14.07;;;3.53;;
20445;SDS011;10382;49.140;9.234;2022-09-02T13:17:20;13.23;;;3.67;;
20445;SDS011;10382;49.140;9.234;2022-09-02T13:20:02;12.63;;;3.53;;
20445;SDS011;10382;49.140;9.234;2022-09-02T13:22:48;18.23;;;4.63;;
20445;SDS011;10382;49.140;9.234;2022-09-02T13:25:30;16.47;;;4.17;;
20445;SDS011;10382;49.140;9.234;2022-09-02T13:31:32;32.93;;;5.20;;
20445;SDS011;10382;49.140;9.234;2022-09-02T13:33:59;14.87;;;3.30;;
20445;SDS011;10382;49.140;9.234;2022-09-02T13:36:29;15.67;;;3.87;;
20445;SDS011;10382;49.140;9.234;2022-09-02T13:39:08;12.00;;;3.40;;
20445;SDS011;10382;49.140;9.234;2022-09-02T13:41:39;18.60;;;4.70;;
20445;SDS011;10382;49.140;9.234;2022-09-02T13:44:06;17.17;;;3.60;;
20445;SDS011;10382;49.140;9.234;2022-09-02T13:46:44;17.60;;;3.83;;
20445;SDS011;10382;49.140;9.234;2022-09-02T13:49:21;14.10;;;3.90;;
20445;SDS011;10382;49.140;9.234;2022-09-02T13:51:51;13.07;;;3.57;;
20445;SDS011;10382;49.140;9.234;2022-09-02T13:54:22;10.10;;;2.90;;
20445;SDS011;10382;49.140;9.234;2022-09-02T13:56:57;8.57;;;2.30;;
20445;SDS011;10382;49.140;9.234;2022-09-02T13:59:36;16.57;;;3.43;;
20445;SDS011;10382;49.140;9.234;2022-09-02T14:02:24;15.20;;;3.80;;
20445;SDS011;10382;49.140;9.234;2022-09-02T14:04:55;14.73;;;3.23;;
20445;SDS011;10382;49.140;9.234;2022-09-02T14:07:25;14.07;;;3.80;;
20445;SDS011;10382;49.140;9.234;2022-09-02T14:09:57;11.47;;;3.17;;
20445;SDS011;10382;49.140;9.234;2022-09-02T14:12:27;12.67;;;3.87;;
20445;SDS011;10382;49.140;9.234;2022-09-02T14:14:57;12.53;;;3.27;;
20445;SDS011;10382;49.140;9.234;2022-09-02T14:17:25;16.90;;;3.83;;
20445;SDS011;10382;49.140;9.234;2022-09-02T14:20:06;16.40;;;4.10;;
20445;SDS011;10382;49.140;9.234;2022-09-02T14:22:34;12.87;;;3.60;;
20445;SDS011;10382;49.140;9.234;2022-09-02T14:25:06;12.03;;;3.47;;
20445;SDS011;10382;49.140;9.234;2022-09-02T14:27:37;11.07;;;3.20;;
20445;SDS011;10382;49.140;9.234;2022-09-02T14:30:06;15.97;;;4.27;;
20445;SDS011;10382;49.140;9.234;2022-09-02T14:32:34;11.00;;;3.00;;
20445;SDS011;10382;49.140;9.234;2022-09-02T14:35:18;18.23;;;4.60;;
20445;SDS011;10382;49.140;9.234;2022-09-02T14:37:46;13.87;;;3.40;;
20445;SDS011;10382;49.140;9.234;2022-09-02T14:40:15;13.47;;;3.20;;
20445;SDS011;10382;49.140;9.234;2022-09-02T14:42:46;12.53;;;3.43;;
20445;SDS011;10382;49.140;9.234;2022-09-02T14:45:22;8.33;;;2.80;;
20445;SDS011;10382;49.140;9.234;2022-09-02T14:47:51;14.00;;;3.70;;
20445;SDS011;10382;49.140;9.234;2022-09-02T14:50:20;12.30;;;3.47;;
20445;SDS011;10382;49.140;9.234;2022-09-02T14:52:51;10.40;;;2.87;;
20445;SDS011;10382;49.140;9.234;2022-09-02T14:55:47;14.03;;;2.80;;
20445;SDS011;10382;49.140;9.234;2022-09-02T14:58:18;12.10;;;3.30;;
20445;SDS011;10382;49.140;9.234;2022-09-02T15:00:47;11.10;;;3.03;;
20445;SDS011;10382;49.140;9.234;2022-09-02T15:03:16;17.83;;;4.77;;
20445;SDS011;10382;49.140;9.234;2022-09-02T15:05:44;14.73;;;3.70;;
20445;SDS011;10382;49.140;9.234;2022-09-02T15:08:11;9.40;;;3.13;;
20445;SDS011;10382;49.140;9.234;2022-09-02T15:10:39;15.90;;;2.87;;
20445;SDS011;10382;49.140;9.234;2022-09-02T15:13:08;13.13;;;2.67;;
20445;SDS011;10382;49.140;9.234;2022-09-02T15:15:38;13.47;;;3.50;;
20445;SDS011;10382;49.140;9.234;2022-09-02T15:18:06;10.87;;;3.23;;
20445;SDS011;10382;49.140;9.234;2022-09-02T15:20:33;16.33;;;5.07;;
20445;SDS011;10382;49.140;9.234;2022-09-02T15:22:59;12.20;;;3.47;;
20445;SDS011;10382;49.140;9.234;2022-09-02T15:25:27;10.40;;;3.20;;
20445;SDS011;10382;49.140;9.234;2022-09-02T15:27:54;10.50;;;3.20;;
20445;SDS011;10382;49.140;9.234;2022-09-02T15:30:21;19.27;;;3.97;;